Time;durP1;ratioP1;P1;durP2;ratioP2;P2;SDS_P1;SDS_P2;PMS_P1;PMS_P2;Temp;Humidity;BMP_temperature;BMP_pressure;BME280_temperature;BME280_humidity;BME280_pressure;Samples;Min_cycle;Max_cycle;Signal;HPM_P1;HPM_P2
2022/05/31 00:01:05;;;;;;;6.90;4.72;;;12.40;99.90;;;;;;5091676;28;20197;-46
2022/05/31 00:03:30;;;;;;;8.38;4.93;;;12.40;99.90;;;;;;5091665;28;20541;-46
2022/05/31 00:05:56;;;;;;;6.90;4.90;;;12.40;99.90;;;;;;5092742;28;20712;-47
2022/05/31 00:08:21;;;;;;;6.28;4.63;;;12.40;99.90;;;;;;5095570;28;20256;-47
2022/05/31 00:10:47;;;;;;;9.10;5.05;;;12.40;99.90;;;;;;5095313;28;20169;-47
2022/05/31 00:13:12;;;;;;;6.43;4.32;;;12.40;99.90;;;;;;5095414;28;20161;-47
2022/05/31 00:15:38;;;;;;;8.35;4.88;;;12.30;99.90;;;;;;5095486;28;20530;-47
2022/05/31 00:18:04;;;;;;;10.93;4.53;;;12.40;99.90;;;;;;5095343;28;20614;-50
2022/05/31 00:20:30;;;;;;;7.03;4.93;;;12.40;99.90;;;;;;5111647;28;20252;-48
2022/05/31 00:22:56;;;;;;;8.55;4.50;;;12.40;99.90;;;;;;5095866;28;20252;-48
2022/05/31 00:25:22;;;;;;;7.05;4.88;;;12.30;99.90;;;;;;5095137;28;20193;-49
2022/05/31 00:27:47;;;;;;;6.03;4.65;;;12.30;99.90;;;;;;5095083;28;20221;-50
2022/05/31 00:30:14;;;;;;;7.15;5.43;;;12.30;99.90;;;;;;5095126;28;20165;-46
2022/05/31 00:32:43;;;;;;;7.22;4.90;;;12.30;99.90;;;;;;5095113;28;20172;-46
2022/05/31 00:35:15;;;;;;;8.93;4.82;;;12.30;99.90;;;;;;5076963;28;20211;-48
2022/05/31 00:37:42;;;;;;;7.78;5.03;;;12.30;99.90;;;;;;5094966;28;20238;-49
2022/05/31 00:40:09;;;;;;;9.07;5.07;;;12.40;99.90;;;;;;5094919;28;20184;-46
2022/05/31 00:42:58;;;;;;;7.22;4.88;;;12.40;99.90;;;;;;5094908;28;20165;-46
2022/05/31 00:45:35;;;;;;;9.85;4.90;;;12.30;99.90;;;;;;5094783;28;20201;-46
2022/05/31 00:48:02;;;;;;;7.07;4.53;;;12.30;99.90;;;;;;5094820;28;20662;-45
2022/05/31 00:50:43;;;;;;;6.25;5.13;;;12.30;99.90;;;;;;5095151;28;20161;-46
2022/05/31 00:53:16;;;;;;;7.03;4.82;;;12.20;99.90;;;;;;5094570;28;20221;-46
2022/05/31 00:55:46;;;;;;;8.88;6.25;;;12.30;99.90;;;;;;5094593;28;20543;-46
2022/05/31 00:58:19;;;;;;;6.63;5.13;;;12.20;99.90;;;;;;5094716;28;20162;-46
2022/05/31 01:00:45;;;;;;;7.30;4.65;;;12.20;99.90;;;;;;5094539;28;20165;-46
2022/05/31 01:03:15;;;;;;;6.40;4.82;;;12.20;99.90;;;;;;5094464;28;20197;-46
2022/05/31 01:05:40;;;;;;;7.07;5.68;;;12.20;99.90;;;;;;5094363;28;20227;-47
2022/05/31 01:08:06;;;;;;;6.20;5.45;;;12.20;99.90;;;;;;5094433;28;20618;-46
2022/05/31 01:10:32;;;;;;;6.68;4.60;;;12.20;99.90;;;;;;5076150;28;20169;-46
2022/05/31 01:13:00;;;;;;;8.30;4.80;;;12.20;99.90;;;;;;5094708;28;20641;-46
2022/05/31 01:15:26;;;;;;;8.27;5.47;;;12.10;99.90;;;;;;5094841;28;20169;-47
2022/05/31 01:17:52;;;;;;;6.07;4.57;;;12.10;99.90;;;;;;5093336;28;20169;-47
2022/05/31 01:20:20;;;;;;;8.50;4.90;;;12.10;99.90;;;;;;5094234;28;20161;-48
2022/05/31 01:22:59;;;;;;;8.43;5.47;;;12.10;99.90;;;;;;5094388;28;20252;-47
2022/05/31 01:25:48;;;;;;;5.80;4.70;;;12.00;99.90;;;;;;5094533;28;20200;-47
2022/05/31 01:28:37;;;;;;;7.38;5.00;;;12.10;99.90;;;;;;5094080;28;20161;-47
2022/05/31 01:31:41;;;;;;;4.53;4.13;;;12.10;99.90;;;;;;5094006;28;20166;-48
2022/05/31 01:34:20;;;;;;;7.30;4.80;;;12.10;99.90;;;;;;5052537;28;20177;-46
2022/05/31 01:36:49;;;;;;;8.60;4.93;;;12.10;99.90;;;;;;5093863;28;20218;-48
2022/05/31 01:39:37;;;;;;;6.53;4.57;;;12.10;99.90;;;;;;5093797;28;20191;-48
2022/05/31 01:42:05;;;;;;;8.25;4.50;;;12.10;99.90;;;;;;5094095;28;20220;-48
2022/05/31 01:44:35;;;;;;;8.55;4.90;;;12.10;99.90;;;;;;5093638;28;20653;-48
2022/05/31 01:47:02;;;;;;;6.90;4.97;;;12.00;99.90;;;;;;5093736;28;20176;-46
2022/05/31 01:49:32;;;;;;;6.25;4.47;;;12.00;99.90;;;;;;5094206;28;20200;-49
2022/05/31 01:51:59;;;;;;;6.00;4.63;;;12.10;99.90;;;;;;5093708;28;20294;-47
2022/05/31 01:54:26;;;;;;;11.20;4.07;;;12.00;99.90;;;;;;5093500;28;20549;-47
2022/05/31 01:56:57;;;;;;;7.10;4.80;;;12.00;99.90;;;;;;5093454;28;20263;-48
2022/05/31 01:59:24;;;;;;;10.07;5.20;;;12.10;99.90;;;;;;5075880;28;20162;-47
2022/05/31 02:01:51;;;;;;;6.20;4.75;;;12.00;99.90;;;;;;5093304;28;20204;-46
2022/05/31 02:04:17;;;;;;;6.32;4.60;;;12.00;99.90;;;;;;5093526;28;20177;-47
2022/05/31 02:06:43;;;;;;;5.82;4.20;;;12.00;99.90;;;;;;5093238;28;20561;-48
2022/05/31 02:09:11;;;;;;;6.68;4.57;;;12.00;99.90;;;;;;5093419;28;20165;-47
2022/05/31 02:11:38;;;;;;;6.10;4.13;;;12.00;99.90;;;;;;5093181;28;20649;-47
2022/05/31 02:14:05;;;;;;;6.25;4.57;;;11.90;99.90;;;;;;5093117;28;20239;-48
2022/05/31 02:16:31;;;;;;;6.38;4.65;;;11.90;99.90;;;;;;5093046;28;20169;-48
2022/05/31 02:19:17;;;;;;;6.38;4.30;;;11.80;99.90;;;;;;5093348;28;20252;-47
2022/05/31 02:21:43;;;;;;;9.30;5.28;;;11.80;99.90;;;;;;5093223;28;20188;-47
2022/05/31 02:24:14;;;;;;;5.75;4.45;;;11.90;99.90;;;;;;5092971;28;20162;-50
2022/05/31 02:26:41;;;;;;;8.35;5.15;;;11.90;99.90;;;;;;5092840;28;20243;-48
2022/05/31 02:29:09;;;;;;;7.75;5.38;;;11.90;99.90;;;;;;5092523;28;20177;-48
2022/05/31 02:31:35;;;;;;;9.10;5.07;;;11.90;99.90;;;;;;5074591;28;20177;-48
2022/05/31 02:34:01;;;;;;;9.57;4.35;;;11.90;99.90;;;;;;5092731;28;20188;-48
2022/05/31 02:36:27;;;;;;;6.05;4.82;;;11.90;99.90;;;;;;5093090;28;20161;-49
2022/05/31 02:38:54;;;;;;;11.52;5.10;;;11.90;99.90;;;;;;5092685;28;20184;-48
2022/05/31 02:41:20;;;;;;;12.07;5.38;;;12.00;99.90;;;;;;5092862;28;20532;-50
2022/05/31 02:43:46;;;;;;;9.77;4.35;;;12.00;99.90;;;;;;5092873;28;20169;-49
2022/05/31 02:46:11;;;;;;;10.93;4.80;;;12.00;99.90;;;;;;5092703;28;20231;-50
2022/05/31 02:48:37;;;;;;;7.25;4.75;;;11.90;99.90;;;;;;5092733;28;20167;-49
2022/05/31 02:51:03;;;;;;;6.90;4.72;;;12.00;99.90;;;;;;5092553;28;20173;-50
2022/05/31 02:53:29;;;;;;;6.07;3.88;;;12.00;99.90;;;;;;5092620;28;20221;-50
2022/05/31 02:55:56;;;;;;;6.00;4.82;;;12.00;99.90;;;;;;5093014;28;20246;-49
2022/05/31 02:58:22;;;;;;;6.30;4.10;;;11.90;99.90;;;;;;5092423;28;20244;-49
2022/05/31 03:00:47;;;;;;;5.70;4.03;;;11.90;99.90;;;;;;5092278;28;20277;-48
2022/05/31 03:03:13;;;;;;;4.88;4.15;;;11.90;99.90;;;;;;5092260;28;20169;-48
2022/05/31 03:05:39;;;;;;;6.03;4.35;;;11.90;99.90;;;;;;5092443;28;20220;-46
2022/05/31 03:08:05;;;;;;;7.30;4.07;;;11.90;99.90;;;;;;5092265;28;20197;-49
2022/05/31 03:10:37;;;;;;;4.78;3.85;;;11.80;99.90;;;;;;5092182;28;20518;-46
2022/05/31 03:13:03;;;;;;;5.35;4.25;;;11.80;99.90;;;;;;5092076;28;20678;-48
2022/05/31 03:15:33;;;;;;;5.70;4.78;;;11.70;99.90;;;;;;5092423;28;20252;-46
2022/05/31 03:18:06;;;;;;;10.00;5.22;;;11.80;99.90;;;;;;5092429;28;20157;-47
2022/05/31 03:20:48;;;;;;;9.77;6.47;;;11.70;99.90;;;;;;5092128;28;20169;-46
2022/05/31 03:23:27;;;;;;;12.43;7.18;;;11.70;99.90;;;;;;5092120;28;20524;-48
2022/05/31 03:25:53;;;;;;;15.85;8.27;;;11.60;99.90;;;;;;5092225;28;20209;-46
2022/05/31 03:28:20;;;;;;;13.32;8.77;;;11.70;99.90;;;;;;5092050;28;20577;-49
2022/05/31 03:30:45;;;;;;;17.17;11.10;;;11.70;99.90;;;;;;5091965;28;20196;-50
2022/05/31 03:33:12;;;;;;;27.38;15.15;;;11.80;99.90;;;;;;5091956;28;20229;-47
2022/05/31 03:35:38;;;;;;;28.90;15.10;;;11.80;99.90;;;;;;5073838;28;20177;-50
2022/05/31 03:38:04;;;;;;;27.27;15.25;;;11.70;99.90;;;;;;5091860;28;20158;-50
2022/05/31 03:43:14;;;;;;;21.33;12.18;;;11.80;99.90;;;;;;5096122;28;20256;-50
2022/05/31 03:45:42;;;;;;;13.75;7.45;;;11.80;99.90;;;;;;5095873;28;20284;-48
2022/05/31 03:48:09;;;;;;;14.65;6.45;;;11.80;99.90;;;;;;5096067;28;20165;-50
2022/05/31 03:50:35;;;;;;;14.88;7.00;;;11.80;99.90;;;;;;5096171;28;20698;-49
2022/05/31 03:53:01;;;;;;;8.70;5.95;;;11.90;99.90;;;;;;5095664;28;20685;-49
2022/05/31 03:55:27;;;;;;;13.20;6.68;;;11.90;99.90;;;;;;5096319;28;20169;-50
2022/05/31 03:57:53;;;;;;;8.35;5.65;;;11.90;99.90;;;;;;5095829;28;20688;-48
2022/05/31 04:00:19;;;;;;;13.82;7.38;;;11.90;99.90;;;;;;5095824;28;20249;-50
2022/05/31 04:02:45;;;;;;;11.60;6.47;;;11.90;99.90;;;;;;5095744;28;20196;-49
2022/05/31 04:05:12;;;;;;;7.72;5.05;;;11.90;99.90;;;;;;5095896;28;20200;-49
2022/05/31 04:07:38;;;;;;;9.10;4.85;;;11.90;99.90;;;;;;5095589;28;20307;-49
2022/05/31 04:10:05;;;;;;;4.82;3.60;;;11.90;99.90;;;;;;5095589;28;20244;-48
2022/05/31 04:12:34;;;;;;;7.68;4.15;;;11.80;99.90;;;;;;5095483;28;20177;-49
2022/05/31 04:14:59;;;;;;;6.30;3.33;;;11.70;99.90;;;;;;5095977;28;20199;-47
2022/05/31 04:17:25;;;;;;;7.57;3.50;;;11.70;99.90;;;;;;5095695;28;20169;-49
2022/05/31 04:19:50;;;;;;;5.82;3.55;;;11.80;99.90;;;;;;5095360;28;20174;-48
2022/05/31 04:22:16;;;;;;;4.82;3.45;;;11.80;99.90;;;;;;5095303;28;20189;-50
2022/05/31 04:24:42;;;;;;;5.22;3.45;;;11.70;99.90;;;;;;5095220;28;20539;-50
2022/05/31 04:27:07;;;;;;;4.45;3.20;;;11.70;99.90;;;;;;5095561;28;20540;-48
2022/05/31 04:29:35;;;;;;;4.05;3.30;;;11.80;99.90;;;;;;5095209;28;20245;-50
2022/05/31 04:32:00;;;;;;;5.40;2.97;;;11.80;99.90;;;;;;5095321;28;20170;-47
2022/05/31 04:34:27;;;;;;;3.67;2.90;;;11.80;99.90;;;;;;5095481;28;20174;-48
2022/05/31 04:36:52;;;;;;;3.65;2.90;;;11.80;99.90;;;;;;5095288;28;20181;-49
2022/05/31 04:39:18;;;;;;;6.20;3.13;;;11.80;99.90;;;;;;5094137;28;20248;-48
2022/05/31 04:41:43;;;;;;;6.15;3.50;;;11.90;99.90;;;;;;5094959;28;20240;-47
2022/05/31 04:44:09;;;;;;;5.85;3.33;;;11.90;99.90;;;;;;5094939;28;20170;-48
2022/05/31 04:46:35;;;;;;;5.82;3.28;;;12.00;99.90;;;;;;5094758;28;20227;-48
2022/05/31 04:49:02;;;;;;;5.68;2.88;;;11.90;99.90;;;;;;5094867;28;20201;-46
2022/05/31 04:51:30;;;;;;;8.05;3.30;;;12.00;99.90;;;;;;5094724;28;20674;-50
2022/05/31 04:53:55;;;;;;;7.03;2.90;;;12.00;99.90;;;;;;5094921;28;20231;-48
2022/05/31 04:56:22;;;;;;;9.23;3.35;;;12.10;99.90;;;;;;5076358;28;20173;-50
2022/05/31 04:58:51;;;;;;;7.03;3.38;;;12.10;99.90;;;;;;5094486;28;20168;-48
2022/05/31 05:01:17;;;;;;;6.93;3.10;;;12.10;99.90;;;;;;5094496;28;20165;-49
2022/05/31 05:03:44;;;;;;;6.65;3.00;;;12.10;99.90;;;;;;5094457;28;20255;-49
2022/05/31 05:06:11;;;;;;;6.15;3.75;;;12.10;99.90;;;;;;5094362;28;20234;-49
2022/05/31 05:08:37;;;;;;;6.90;3.08;;;12.00;99.90;;;;;;5094295;28;20180;-48
2022/05/31 05:11:05;;;;;;;4.93;3.03;;;12.10;99.90;;;;;;5094342;28;20185;-48
2022/05/31 05:13:31;;;;;;;4.50;3.00;;;12.20;99.90;;;;;;5094340;28;20592;-47
2022/05/31 05:15:59;;;;;;;5.13;2.83;;;12.20;99.90;;;;;;5094676;28;20260;-47
2022/05/31 05:18:25;;;;;;;4.63;2.58;;;12.30;99.90;;;;;;5094620;28;20170;-47
2022/05/31 05:20:51;;;;;;;4.22;2.97;;;12.30;99.90;;;;;;5094181;28;20162;-47
2022/05/31 05:23:16;;;;;;;4.75;3.30;;;12.30;99.90;;;;;;5075873;28;20187;-47
2022/05/31 05:25:51;;;;;;;6.00;3.53;;;12.30;99.90;;;;;;5093931;28;20255;-46
2022/05/31 05:31:01;;;;;;;5.70;3.20;;;12.00;99.90;;;;;;5093902;28;20192;-46
2022/05/31 05:33:28;;;;;;;6.63;4.47;;;12.00;99.90;;;;;;5094285;28;20626;-46
2022/05/31 05:35:53;;;;;;;5.13;4.10;;;12.10;99.90;;;;;;5093873;28;20272;-46
2022/05/31 05:38:19;;;;;;;5.63;3.47;;;12.10;99.90;;;;;;5093766;28;20677;-46
2022/05/31 05:40:44;;;;;;;10.68;3.88;;;12.00;99.90;;;;;;5093797;28;20209;-50
2022/05/31 05:43:10;;;;;;;5.47;3.78;;;11.90;99.90;;;;;;5093794;28;20180;-48
2022/05/31 05:45:37;;;;;;;6.85;3.13;;;11.90;99.90;;;;;;5093619;28;20227;-46
2022/05/31 05:48:03;;;;;;;5.13;3.15;;;11.90;99.90;;;;;;5093883;28;20193;-48
2022/05/31 05:50:29;;;;;;;3.97;3.10;;;11.90;99.90;;;;;;5093924;28;20162;-49
2022/05/31 05:53:00;;;;;;;6.18;3.17;;;11.80;99.90;;;;;;5093284;28;20282;-50
2022/05/31 05:55:26;;;;;;;9.38;3.03;;;11.90;99.90;;;;;;5093762;28;20630;-50
2022/05/31 05:57:51;;;;;;;6.18;3.60;;;11.90;99.90;;;;;;5075174;28;20256;-49
2022/05/31 06:00:17;;;;;;;7.70;3.38;;;11.90;99.90;;;;;;5093342;28;20174;-50
2022/05/31 06:02:47;;;;;;;4.88;3.08;;;11.90;99.90;;;;;;5093385;28;20212;-49
2022/05/31 06:05:19;;;;;;;9.43;3.53;;;11.90;99.90;;;;;;5092865;28;20193;-50
2022/05/31 06:07:59;;;;;;;5.60;3.42;;;11.90;99.90;;;;;;5093295;28;20248;-50
2022/05/31 06:10:55;;;;;;;7.55;3.33;;;11.90;99.90;;;;;;5093745;28;20547;-50
2022/05/31 06:13:26;;;;;;;8.25;4.05;;;11.90;99.90;;;;;;5093159;28;20169;-50
2022/05/31 06:15:56;;;;;;;8.88;3.85;;;11.90;99.90;;;;;;5074937;28;20165;-49
2022/05/31 06:18:37;;;;;;;7.90;3.63;;;11.90;99.90;;;;;;5093012;28;20184;-49
2022/05/31 06:21:06;;;;;;;5.05;3.25;;;11.90;99.90;;;;;;5092999;28;20623;-49
2022/05/31 06:23:36;;;;;;;4.32;3.70;;;12.10;99.90;;;;;;5074709;28;20181;-50
2022/05/31 06:26:02;;;;;;;5.00;3.38;;;12.20;99.90;;;;;;5092921;28;20201;-48
2022/05/31 06:28:27;;;;;;;5.90;3.60;;;12.30;99.90;;;;;;5093188;28;20291;-50
2022/05/31 06:30:53;;;;;;;8.57;3.35;;;12.40;99.90;;;;;;5092847;28;20162;-50
2022/05/31 06:33:18;;;;;;;5.38;3.28;;;12.50;99.90;;;;;;5074766;28;20173;-49
2022/05/31 06:35:44;;;;;;;6.72;3.60;;;12.60;99.90;;;;;;5092736;28;20165;-47
2022/05/31 06:38:09;;;;;;;5.63;4.03;;;12.70;99.90;;;;;;5092636;28;20173;-49
2022/05/31 06:40:35;;;;;;;7.97;3.53;;;12.80;99.90;;;;;;5092883;28;20582;-49
2022/05/31 06:43:01;;;;;;;4.30;3.60;;;13.00;99.90;;;;;;5092812;28;20215;-48
2022/05/31 06:45:26;;;;;;;5.88;3.55;;;13.20;99.90;;;;;;5093083;28;20201;-50
2022/05/31 06:47:52;;;;;;;5.03;3.33;;;13.20;99.90;;;;;;5092833;28;20660;-49
2022/05/31 06:50:17;;;;;;;4.45;3.35;;;13.30;99.90;;;;;;5092544;28;20203;-49
2022/05/31 06:58:11;;;;;;;4.82;3.17;;;13.50;99.90;;;;;;5092661;28;20338;-46
2022/05/31 07:00:37;;;;;;;3.95;2.90;;;13.50;99.90;;;;;;5092336;28;20201;-46
2022/05/31 07:03:03;;;;;;;5.70;3.05;;;13.80;99.90;;;;;;5074140;28;20581;-49
2022/05/31 07:05:29;;;;;;;4.00;2.80;;;13.80;99.90;;;;;;5092713;28;20197;-46
2022/05/31 07:07:55;;;;;;;5.13;3.25;;;14.20;99.90;;;;;;5092746;28;20172;-48
2022/05/31 07:10:21;;;;;;;8.10;3.05;;;14.40;99.90;;;;;;5092208;28;20157;-48
2022/05/31 07:12:47;;;;;;;5.18;3.15;;;14.90;99.90;;;;;;5091967;28;20239;-49
2022/05/31 07:15:13;;;;;;;6.43;3.20;;;15.10;99.90;;;;;;5091447;28;20630;-49
2022/05/31 07:17:39;;;;;;;4.35;2.78;;;15.20;99.90;;;;;;5107651;28;20630;-47
2022/05/31 07:20:06;;;;;;;5.70;2.55;;;15.50;99.90;;;;;;5091987;28;20509;-49
2022/05/31 07:22:32;;;;;;;4.57;2.70;;;15.50;99.90;;;;;;5092035;28;20193;-49
2022/05/31 07:24:58;;;;;;;5.57;3.10;;;15.50;99.90;;;;;;5092262;28;20169;-49
2022/05/31 07:27:24;;;;;;;4.95;2.88;;;15.20;99.90;;;;;;5092028;28;20649;-50
2022/05/31 07:29:50;;;;;;;5.07;3.17;;;15.30;99.90;;;;;;5092013;28;20173;-47
2022/05/31 07:32:16;;;;;;;6.25;3.30;;;15.20;99.90;;;;;;5091950;28;20176;-48
2022/05/31 07:34:42;;;;;;;5.43;3.05;;;15.10;99.90;;;;;;5091948;28;20157;-50
2022/05/31 07:37:08;;;;;;;5.75;3.60;;;15.20;99.90;;;;;;5091994;28;20157;-50
2022/05/31 07:39:34;;;;;;;5.72;2.67;;;15.20;99.90;;;;;;5091854;28;20244;-48
2022/05/31 07:42:00;;;;;;;6.03;3.20;;;15.20;99.90;;;;;;5092257;28;20181;-49
2022/05/31 07:44:26;;;;;;;6.10;2.47;;;15.10;99.90;;;;;;5092239;28;20256;-49
2022/05/31 07:46:53;;;;;;;8.38;2.80;;;15.20;99.90;;;;;;5092035;28;20205;-50
2022/05/31 07:49:20;;;;;;;5.05;3.17;;;15.20;99.90;;;;;;5092043;28;20169;-48
2022/05/31 07:51:46;;;;;;;5.50;2.95;;;15.20;99.90;;;;;;5091572;28;20217;-49
2022/05/31 07:54:12;;;;;;;5.57;3.15;;;15.20;99.90;;;;;;5091945;28;20176;-49
2022/05/31 07:56:37;;;;;;;6.38;2.55;;;15.30;99.90;;;;;;5091777;28;20161;-48
2022/05/31 07:59:04;;;;;;;4.55;2.83;;;15.30;99.90;;;;;;5091694;28;20661;-49
2022/05/31 08:01:29;;;;;;;3.85;3.33;;;15.40;99.90;;;;;;5091989;28;20176;-47
2022/05/31 08:03:55;;;;;;;8.32;3.13;;;15.40;99.90;;;;;;5091954;28;20165;-49
2022/05/31 08:06:23;;;;;;;6.18;2.97;;;15.40;99.90;;;;;;5091579;28;20655;-49
2022/05/31 08:08:49;;;;;;;4.75;2.83;;;15.20;99.90;;;;;;5091617;28;20169;-46
2022/05/31 08:11:23;;;;;;;6.80;3.40;;;15.10;99.90;;;;;;5091828;28;20642;-47
2022/05/31 08:13:49;;;;;;;18.05;5.55;;;15.00;99.90;;;;;;5091405;28;20161;-46
2022/05/31 08:16:21;;;;;;;9.38;3.15;;;15.00;99.90;;;;;;5091844;28;20177;-48
2022/05/31 08:18:48;;;;;;;12.18;3.30;;;14.90;99.90;;;;;;5091071;28;20404;-50
2022/05/31 08:21:17;;;;;;;4.50;2.70;;;14.90;99.90;;;;;;5091728;28;20256;-47
2022/05/31 08:23:43;;;;;;;7.82;3.05;;;14.80;99.90;;;;;;5091785;28;20170;-49
2022/05/31 08:26:09;;;;;;;6.53;2.75;;;14.70;99.90;;;;;;5091451;28;20204;-47
2022/05/31 08:28:35;;;;;;;7.07;3.08;;;14.70;99.90;;;;;;5094830;28;20169;-48
2022/05/31 08:31:04;;;;;;;5.63;2.92;;;14.80;99.90;;;;;;5095187;28;20176;-48
2022/05/31 08:33:29;;;;;;;7.55;2.80;;;14.60;99.90;;;;;;5095635;28;20230;-46
2022/05/31 08:35:56;;;;;;;7.05;2.78;;;14.70;99.90;;;;;;5095434;28;20570;-46
2022/05/31 08:38:22;;;;;;;8.07;3.03;;;14.70;99.90;;;;;;5094915;28;20170;-46
2022/05/31 08:41:14;;;;;;;5.82;2.70;;;14.80;99.90;;;;;;5094950;28;20226;-47
2022/05/31 08:43:45;;;;;;;4.78;2.80;;;14.90;99.90;;;;;;5094961;28;20165;-47
2022/05/31 08:46:23;;;;;;;4.72;2.53;;;15.00;99.90;;;;;;5094845;28;20746;-48
2022/05/31 08:49:01;;;;;;;9.65;2.92;;;15.00;99.90;;;;;;5094730;28;20169;-46
2022/05/31 08:51:53;;;;;;;4.47;2.70;;;15.10;99.90;;;;;;5095183;28;20555;-48
2022/05/31 08:57:30;;;;;;;4.10;2.47;;;15.40;99.90;;;;;;5094682;28;20172;-47
2022/05/31 09:00:04;;;;;;;4.57;2.55;;;15.40;99.90;;;;;;5095112;28;20252;-48
2022/05/31 09:02:53;;;;;;;4.30;2.22;;;15.40;99.90;;;;;;5094695;28;20248;-46
2022/05/31 09:05:28;;;;;;;9.68;3.03;;;15.40;99.90;;;;;;5094408;28;20219;-48
2022/05/31 09:08:21;;;;;;;5.32;2.78;;;15.50;99.90;;;;;;5094270;28;20544;-46
2022/05/31 09:10:57;;;;;;;7.38;2.85;;;15.40;99.90;;;;;;5094491;28;20170;-47
2022/05/31 09:13:29;;;;;;;7.00;2.70;;;15.50;99.90;;;;;;5094373;28;20226;-47
2022/05/31 09:16:26;;;;;;;12.52;2.90;;;15.70;99.90;;;;;;5094641;28;20763;-47
2022/05/31 09:18:58;;;;;;;4.65;2.38;;;15.80;99.90;;;;;;5090511;28;20245;-48
2022/05/31 09:21:42;;;;;;;6.53;2.90;;;16.00;99.90;;;;;;5094195;28;20165;-48
2022/05/31 09:24:13;;;;;;;3.00;2.53;;;16.00;99.90;;;;;;5094189;28;20197;-48
2022/05/31 09:27:08;;;;;;;3.35;2.42;;;16.00;99.90;;;;;;5094044;28;20196;-48
2022/05/31 09:29:55;;;;;;;3.05;2.50;;;16.10;99.90;;;;;;5094302;28;20173;-47
2022/05/31 09:32:42;;;;;;;5.57;2.83;;;16.20;99.90;;;;;;5094244;28;20268;-49
2022/05/31 09:35:40;;;;;;;4.72;2.67;;;16.30;99.90;;;;;;5094025;28;20255;-49
2022/05/31 09:38:25;;;;;;;4.82;2.63;;;16.40;99.90;;;;;;5093398;28;20173;-48
2022/05/31 09:41:10;;;;;;;7.63;2.95;;;16.40;99.90;;;;;;5075730;28;20549;-48
2022/05/31 09:43:45;;;;;;;4.18;2.95;;;16.60;99.90;;;;;;5093862;28;20176;-48
2022/05/31 09:46:25;;;;;;;3.63;2.58;;;16.60;99.90;;;;;;5093731;28;20197;-47
2022/05/31 09:48:52;;;;;;;2.88;2.58;;;16.60;99.90;;;;;;5093738;28;20197;-46
2022/05/31 09:51:39;;;;;;;7.00;2.85;;;16.60;99.90;;;;;;5093703;28;20234;-47
2022/05/31 09:57:08;;;;;;;4.03;2.50;;;16.80;99.90;;;;;;5093712;28;20185;-47
2022/05/31 09:59:41;;;;;;;3.95;2.70;;;17.20;99.90;;;;;;5093697;28;20177;-47
2022/05/31 10:02:23;;;;;;;5.00;3.15;;;17.20;99.90;;;;;;5093442;28;20205;-47
2022/05/31 10:04:50;;;;;;;5.85;2.70;;;16.90;99.90;;;;;;5093341;28;20161;-47
2022/05/31 10:07:36;;;;;;;5.57;3.03;;;17.00;99.90;;;;;;5093553;28;20242;-48
2022/05/31 10:10:15;;;;;;;4.15;2.50;;;17.20;99.90;;;;;;5093212;28;20162;-47
2022/05/31 10:12:56;;;;;;;13.98;2.83;;;17.30;99.90;;;;;;5093125;28;20683;-46
2022/05/31 10:16:07;;;;;;;7.15;2.97;;;17.20;99.90;;;;;;5093160;28;20177;-46
2022/05/31 10:18:33;;;;;;;4.65;2.35;;;17.20;99.90;;;;;;5011211;28;20182;-46
2022/05/31 10:21:04;;;;;;;6.80;3.00;;;17.30;99.90;;;;;;5082308;28;20177;-48
2022/05/31 10:23:37;;;;;;;5.22;3.22;;;17.40;99.90;;;;;;5093096;28;20176;-47
2022/05/31 10:26:03;;;;;;;5.35;3.08;;;17.30;99.90;;;;;;5093062;28;20237;-47
2022/05/31 10:28:37;;;;;;;5.75;2.42;;;17.40;99.90;;;;;;5093204;28;20166;-46
2022/05/31 10:31:13;;;;;;;5.22;3.08;;;17.40;99.90;;;;;;5093249;28;20173;-46
2022/05/31 10:33:39;;;;;;;4.40;3.05;;;17.60;99.90;;;;;;5092778;28;20565;-47
2022/05/31 10:36:16;;;;;;;5.28;2.50;;;17.90;99.90;;;;;;5092872;28;20171;-47
2022/05/31 10:38:45;;;;;;;3.28;2.90;;;18.50;99.90;;;;;;5092991;28;20168;-47
2022/05/31 10:41:23;;;;;;;5.05;2.78;;;18.10;99.90;;;;;;5092545;28;20169;-46
2022/05/31 10:44:01;;;;;;;5.85;2.90;;;18.70;99.90;;;;;;5092654;28;20157;-47
2022/05/31 10:46:33;;;;;;;15.25;12.05;;;18.60;99.90;;;;;;5092892;28;20681;-46
2022/05/31 10:49:13;;;;;;;5.13;3.33;;;18.70;99.90;;;;;;5092918;28;20196;-47
2022/05/31 10:51:47;;;;;;;11.95;8.40;;;18.80;99.90;;;;;;5092236;28;20204;-46
2022/05/31 10:54:23;;;;;;;5.93;3.45;;;18.40;99.90;;;;;;5092470;28;20189;-46
2022/05/31 10:57:18;;;;;;;6.63;2.90;;;18.40;99.90;;;;;;5092400;28;20625;-48
2022/05/31 11:00:04;;;;;;;5.47;4.93;;;19.00;99.90;;;;;;5092339;28;20173;-46
2022/05/31 11:03:05;;;;;;;5.25;3.58;;;19.10;99.90;;;;;;5092609;28;20537;-46
2022/05/31 11:05:57;;;;;;;4.53;3.65;;;19.00;99.90;;;;;;5054016;28;20224;-47
2022/05/31 11:11:55;;;;;;;3.60;2.70;;;19.00;99.90;;;;;;5092569;28;20176;-46
2022/05/31 11:14:35;;;;;;;5.25;3.17;;;19.00;99.90;;;;;;5091570;28;20176;-48
2022/05/31 11:17:21;;;;;;;5.50;2.90;;;19.20;99.90;;;;;;5092091;28;20165;-47
2022/05/31 11:20:06;;;;;;;5.10;3.20;;;19.90;99.90;;;;;;5092054;28;20525;-47
2022/05/31 11:22:50;;;;;;;4.28;2.80;;;20.10;99.90;;;;;;5092114;28;20642;-49
2022/05/31 11:25:31;;;;;;;6.03;3.00;;;20.30;99.90;;;;;;5092030;28;20205;-47
2022/05/31 11:28:25;;;;;;;5.68;3.50;;;20.10;99.90;;;;;;5092315;28;20165;-47
2022/05/31 11:30:59;;;;;;;5.15;3.40;;;19.90;99.90;;;;;;5091982;28;20211;-49
2022/05/31 11:33:38;;;;;;;7.10;3.53;;;19.80;99.90;;;;;;5092300;28;20169;-49
2022/05/31 11:36:41;;;;;;;5.05;3.63;;;19.90;99.90;;;;;;5073864;28;20226;-47
2022/05/31 11:39:42;;;;;;;5.88;2.70;;;20.60;99.90;;;;;;5091945;28;20644;-48
2022/05/31 11:42:28;;;;;;;6.25;2.75;;;20.60;99.90;;;;;;5092052;28;20176;-47
2022/05/31 11:45:03;;;;;;;4.97;3.15;;;20.50;99.90;;;;;;5092076;28;20169;-47
2022/05/31 11:47:32;;;;;;;6.88;3.50;;;20.10;99.90;;;;;;5092193;28;20161;-49
2022/05/31 11:50:25;;;;;;;4.13;3.63;;;19.90;99.90;;;;;;5092153;28;20189;-48
2022/05/31 11:52:54;;;;;;;3.70;3.13;;;19.60;99.90;;;;;;5091698;28;20213;-47
2022/05/31 11:55:26;;;;;;;3.92;3.08;;;20.10;99.90;;;;;;5091740;28;20161;-46
2022/05/31 11:57:51;;;;;;;4.60;3.03;;;20.50;99.90;;;;;;5091780;28;20248;-47
2022/05/31 12:00:18;;;;;;;5.63;3.30;;;20.80;99.90;;;;;;5091818;28;20291;-48
2022/05/31 12:02:54;;;;;;;4.45;3.13;;;21.00;99.90;;;;;;5093879;28;20165;-48
2022/05/31 12:05:25;;;;;;;6.25;3.47;;;20.90;99.90;;;;;;5095644;28;20566;-46
2022/05/31 12:08:04;;;;;;;4.88;3.38;;;20.60;99.90;;;;;;5095656;28;20303;-46
2022/05/31 12:10:39;;;;;;;3.88;2.85;;;20.40;99.90;;;;;;5095708;28;20172;-46
2022/05/31 12:13:08;;;;;;;3.58;3.22;;;20.30;99.90;;;;;;5095609;28;20165;-48
2022/05/31 12:15:36;;;;;;;4.82;2.75;;;20.20;99.90;;;;;;5095509;28;20176;-46
2022/05/31 12:18:28;;;;;;;3.72;2.80;;;20.10;99.90;;;;;;5095685;28;20537;-46
2022/05/31 12:21:16;;;;;;;5.63;2.90;;;20.00;99.90;;;;;;5095402;28;20165;-46
2022/05/31 12:23:54;;;;;;;6.20;3.13;;;19.90;99.90;;;;;;5095317;28;20310;-48
2022/05/31 12:26:34;;;;;;;4.05;2.60;;;19.70;99.90;;;;;;5095468;28;20204;-46
2022/05/31 12:29:20;;;;;;;4.50;2.60;;;19.50;99.90;;;;;;5095200;28;20165;-47
2022/05/31 12:31:46;;;;;;;5.40;3.10;;;19.60;99.90;;;;;;5095142;28;20645;-47
2022/05/31 12:34:11;;;;;;;4.43;2.67;;;19.70;99.90;;;;;;5095230;28;20226;-48
2022/05/31 12:37:03;;;;;;;3.33;2.70;;;20.00;99.90;;;;;;5095139;28;20165;-48
2022/05/31 12:39:33;;;;;;;5.15;2.67;;;20.00;99.90;;;;;;5095318;28;20219;-48
2022/05/31 12:42:13;;;;;;;5.45;2.80;;;20.10;99.90;;;;;;5095257;28;20172;-48
2022/05/31 12:44:47;;;;;;;3.17;2.70;;;20.10;99.90;;;;;;5094945;28;20630;-48
2022/05/31 12:47:25;;;;;;;3.85;2.72;;;20.50;99.90;;;;;;5095029;28;20216;-48
2022/05/31 12:50:04;;;;;;;5.63;2.65;;;20.50;99.90;;;;;;5094731;28;20193;-48
2022/05/31 12:54:58;;;;;;;3.38;2.70;;;20.00;99.90;;;;;;5095027;28;20212;-48
2022/05/31 13:00:33;;;;;;;6.13;2.55;;;19.60;99.90;;;;;;5095221;28;20248;-48
2022/05/31 13:03:01;;;;;;;5.75;2.30;;;19.40;99.90;;;;;;5094899;28;20173;-47
2022/05/31 13:05:32;;;;;;;4.00;2.30;;;19.30;99.90;;;;;;5094720;28;20193;-47
2022/05/31 13:08:22;;;;;;;3.30;2.00;;;18.90;99.50;;;;;;5094778;28;20206;-47
2022/05/31 13:19:34;;;;;;;4.55;1.80;;;20.00;95.80;;;;;;5094362;28;20176;-47
2022/05/31 13:22:03;;;;;;;4.20;2.13;;;20.60;96.70;;;;;;5094143;28;20165;-47
2022/05/31 13:24:30;;;;;;;7.38;1.65;;;20.90;92.80;;;;;;5094472;28;20165;-47
2022/05/31 13:26:58;;;;;;;8.05;1.85;;;20.70;91.00;;;;;;5094413;28;20642;-49
2022/05/31 13:29:24;;;;;;;8.02;2.30;;;20.50;91.20;;;;;;5094015;28;20161;-47
2022/05/31 13:31:53;;;;;;;7.00;1.80;;;20.30;93.50;;;;;;5094054;28;20169;-47
2022/05/31 13:34:29;;;;;;;7.53;2.03;;;20.00;91.40;;;;;;5094276;28;20169;-47
2022/05/31 13:36:56;;;;;;;4.38;1.80;;;19.90;91.80;;;;;;5094331;28;20235;-47
2022/05/31 13:39:22;;;;;;;3.50;1.60;;;20.00;92.90;;;;;;5093899;28;20527;-47
2022/05/31 13:42:01;;;;;;;2.55;1.77;;;19.80;92.90;;;;;;5093870;28;20173;-47